Date,TemperatureHighF,TemperatureAvgF,TemperatureLowF,DewpointHighF,DewpointAvgF,DewpointLowF,HumidityHigh,HumidityAvg,HumidityLow,PressureMaxIn,PressureMinIn,WindSpeedMaxMPH,WindSpeedAvgMPH,GustSpeedMaxMPH,PrecipitationSumIn
2013-1-1,37.6,21.6,4.8,23.3,11.2,-5.7,86,64,56,29.77,29.53,18,5,18,0.00
2013-1-2,27.0,6.8,-1.7,14.0,-3.6,-11.5,62,62,58,29.94,29.71,23,5,23,0.00
2013-1-3,31.6,6.8,-3.8,16.4,-3.7,-13.7,62,61,58,29.97,29.83,22,4,22,0.00
2013-1-4,33.1,14.3,0.1,20.7,3.5,-9.8,66,62,58,29.83,29.62,15,1,15,0.00
2013-1-5,44.6,26.3,11.3,27.9,14.3,0.7,63,60,58,30.15,29.62,26,5,26,0.00
2013-1-6,50.0,29.1,11.7,33.4,17.1,1.2,63,60,56,30.15,29.83,8,0,8,0.00
2013-1-7,39.2,22.4,7.5,25.8,11.9,-3.3,73,64,57,30.27,29.83,13,3,13,0.00
2013-1-8,51.3,24.7,8.2,36.0,13.7,-2.4,79,63,56,30.24,30.09,9,1,9,0.00
2013-1-9,37.2,29.7,19.0,29.0,20.6,12.7,94,69,59,30.30,29.80,12,1,12,0.00
2013-1-10,43.3,36.6,26.8,29.4,24.2,14.0,80,61,58,30.42,29.83,32,10,32,0.00
2013-1-11,44.8,28.9,17.4,30.3,17.4,7.7,81,62,57,30.42,30.15,9,1,9,0.00
2013-1-12,43.3,36.1,32.0,37.6,32.7,26.8,100,88,69,30.15,30.03,3,0,3,0.04
2013-1-13,43.9,37.2,33.6,38.8,36.0,31.1,100,96,70,30.06,29.88,7,0,7,0.04
2013-1-14,66.2,41.8,31.5,53.1,34.5,19.0,100,78,53,30.12,29.77,20,3,20,0.00
2013-1-15,48.2,32.2,22.8,32.2,20.0,13.6,73,60,57,30.21,30.12,13,2,13,0.00
2013-1-16,29.8,26.4,21.4,21.9,17.4,13.4,84,69,61,30.18,29.68,9,1,9,0.00
2013-1-17,36.0,22.2,11.7,29.9,15.5,1.2,91,76,58,30.03,29.68,17,2,17,0.00
2013-1-18,30.0,9.4,-0.4,16.4,-1.2,-10.3,62,61,58,30.27,30.15,20,3,20,0.00
2013-1-19,34.7,21.0,4.3,22.2,9.9,-5.8,71,62,58,30.21,29.77,10,2,10,0.00
2013-1-20,40.3,28.3,15.8,27.4,17.5,4.8,90,64,58,29.77,29.41,23,3,23,0.04
2013-1-21,35.4,14.1,3.2,21.7,3.2,-6.9,62,61,57,29.91,29.74,17,4,17,0.00
2013-1-22,32.7,13.6,3.2,19.1,2.8,-7.6,62,61,58,29.88,29.68,17,4,17,0.00
2013-1-23,20.7,-1.3,-9.6,8.8,-11.1,-19.0,62,62,60,29.97,29.88,17,6,17,0.00
2013-1-24,8.6,-3.4,-11.9,-1.7,-13.1,-21.3,62,62,62,30.00,29.85,22,4,22,0.00
2013-1-25,8.8,2.3,-2.0,-1.6,-7.8,-11.8,62,62,62,30.06,29.94,18,5,18,0.00
2013-1-26,25.5,10.8,4.5,12.2,0.1,-5.7,62,61,59,30.00,29.88,21,6,21,0.00
2013-1-27,36.5,12.4,4.1,22.7,1.4,-6.3,61,61,57,30.30,30.00,20,6,20,0.00
2013-1-28,30.4,18.4,5.9,17.2,7.3,-4.6,73,61,58,30.30,29.97,11,2,11,0.00
2013-1-29,38.3,23.8,7.5,25.2,14.6,0.6,77,68,59,30.12,29.97,6,0,6,0.04
2013-1-30,46.8,36.9,30.7,46.8,35.9,23.5,100,96,74,30.06,29.38,9,2,9,0.16
2013-1-31,62.2,46.1,25.3,54.3,40.5,12.7,100,82,54,29.38,28.82,26,7,26,0.47
2013-2-1,33.8,21.1,10.4,20.2,9.4,0.0,62,60,57,29.91,29.35,20,6,20,0.00
2013-2-2,36.7,14.8,7.5,20.7,3.9,-2.8,64,61,57,30.06,29.91,16,4,16,0.00
2013-2-3,34.2,19.5,10.2,20.3,9.2,3.6,75,64,58,29.94,29.62,13,2,13,0.00
2013-2-4,38.7,18.5,8.8,25.1,7.1,-1.6,64,60,57,29.74,29.56,20,5,20,0.00
2013-2-5,46.0,14.8,4.1,30.3,3.8,-6.4,62,61,56,29.91,29.74,17,3,17,0.00
2013-2-6,40.8,20.5,8.6,27.0,9.0,-1.7,62,61,58,30.15,29.83,19,3,19,0.00
2013-2-7,40.5,11.6,1.4,26.0,0.8,-8.8,62,61,56,30.45,30.15,14,3,14,0.00
2013-2-8,12.0,8.9,5.5,1.5,-1.4,-4.8,62,62,62,30.45,29.85,24,5,24,0.00
2013-2-9,18.5,13.4,9.1,12.0,5.4,-1.2,76,70,62,30.03,29.71,27,10,27,0.00
2013-2-10,52.9,19.7,4.6,37.6,8.9,-4.1,67,62,56,30.24,30.03,17,4,17,0.00
2013-2-11,30.9,22.4,8.6,28.6,15.0,-1.7,100,74,58,30.24,29.50,10,1,10,0.00
2013-2-12,44.1,35.2,27.9,31.3,25.7,20.7,100,70,58,29.71,29.44,20,4,20,0.16
2013-2-13,52.9,34.4,28.4,35.4,21.8,16.5,61,60,56,29.74,29.68,18,4,18,0.00
2013-2-14,31.1,28.3,21.6,18.9,16.4,10.6,62,60,60,29.91,29.62,13,2,13,0.00
2013-2-15,66.2,34.8,21.9,48.2,22.3,10.9,71,60,53,29.91,29.80,13,2,13,0.00
2013-2-16,38.1,30.6,22.3,28.5,20.1,10.5,94,65,58,29.85,29.71,12,3,231,0.04
2013-2-17,22.3,16.9,12.2,10.5,6.0,1.5,66,62,60,29.71,29.18,30,11,30,0.00
2013-2-18,34.5,17.1,8.8,20.9,5.9,-1.6,62,61,57,29.94,29.38,32,10,32,0.00
2013-2-19,55.8,30.8,10.6,39.8,20.0,0.2,96,64,55,30.00,29.50,9,3,11,0.28
2013-2-20,48.7,31.9,23.5,37.9,24.8,11.2,100,76,57,29.56,29.35,17,4,17,0.12
2013-2-21,25.5,21.0,12.0,13.3,9.3,1.2,62,60,59,30.09,29.56,21,8,21,0.12
2013-2-22,66.0,30.9,19.2,48.4,18.5,8.7,63,60,53,30.30,30.09,15,4,15,0.00
2013-2-23,39.0,30.4,23.5,26.0,20.0,11.8,84,65,59,30.24,29.94,8,1,8,0.00
2013-2-24,32.2,28.6,26.8,26.2,22.4,18.8,90,78,63,29.94,29.71,8,1,8,0.00
2013-2-25,62.6,33.9,25.3,45.4,24.8,18.2,96,70,54,30.15,29.83,9,1,232,0.35
2013-2-26,56.3,35.6,26.2,40.4,26.0,17.3,100,69,55,30.27,30.15,8,1,8,0.00
2013-2-27,34.3,30.6,26.2,30.4,25.2,17.3,100,81,60,30.18,29.62,14,5,17,0.04
2013-2-28,38.3,33.2,29.1,36.0,31.1,24.6,100,92,80,29.65,29.50,15,4,15,0.12
2013-3-1,37.8,32.3,29.5,29.2,24.1,21.6,92,72,59,29.65,29.50,13,2,13,0.04
2013-3-2,44.6,33.3,29.3,30.3,23.6,19.7,90,68,57,29.68,29.59,17,6,17,0.00
2013-3-3,52.5,34.4,28.6,36.1,23.8,18.0,85,65,56,29.65,29.53,14,5,14,0.08
2013-3-4,36.7,29.6,26.4,23.7,17.5,14.8,61,60,59,29.85,29.59,18,8,23,0.00
2013-3-5,50.9,35.1,28.4,35.8,23.7,16.5,83,63,56,30.47,29.85,15,6,15,0.00
2013-3-6,43.9,33.5,29.5,33.0,24.7,17.1,99,71,58,30.86,30.47,22,6,22,0.04
2013-3-7,35.8,31.3,28.6,22.9,19.1,16.5,60,60,59,30.89,30.65,24,8,24,0.00
2013-3-8,48.0,39.0,29.7,32.8,25.7,17.5,60,59,57,31.33,30.16,24,9,24,0.00
2013-3-9,69.1,39.9,23.5,48.2,26.3,11.3,61,58,52,30.72,30.25,13,4,13,0.00
2013-3-10,73.4,37.3,21.4,54.2,24.9,10.9,76,61,51,30.72,30.25,10,2,10,0.00
2013-3-11,61.9,39.9,30.2,44.7,29.2,21.1,80,66,54,30.72,30.72,9,3,9,0.00
2013-3-12,46.9,40.0,35.6,46.9,39.5,28.1,100,98,74,30.72,30.72,16,5,16,0.79
2013-3-13,51.8,40.5,27.1,46.9,31.2,18.7,100,71,56,30.72,28.91,13,4,13,0.04
2013-3-14,42.6,26.9,16.2,28.9,17.7,5.1,100,69,58,29.73,29.61,19,5,19,0.00
2013-3-15,53.2,25.0,12.0,37.1,13.2,1.3,64,60,56,29.76,29.58,22,5,22,0.00
2013-3-16,31.6,22.7,17.1,18.6,10.8,5.9,62,60,58,29.85,29.58,13,4,13,0.00
2013-3-17,43.3,18.9,9.0,29.6,7.4,-1.4,62,60,57,30.26,29.85,15,4,15,0.00
2013-3-18,54.9,24.5,2.8,39.0,12.4,-7.2,62,60,55,30.38,30.23,9,1,9,0.00
2013-3-19,30.4,25.3,21.0,18.5,15.4,13.4,78,66,58,30.23,29.70,15,3,15,0.00
2013-3-20,48.7,27.1,12.0,31.3,17.9,6.2,87,69,57,29.70,29.58,17,2,17,0.12
2013-3-21,67.1,30.0,10.4,47.9,19.4,4.2,85,65,53,29.73,29.58,8,1,8,0.00
2013-3-22,54.1,28.9,18.3,38.3,16.6,6.8,63,59,55,29.64,29.58,11,4,11,0.00
2013-3-23,45.9,30.8,19.2,30.8,18.3,7.6,61,59,57,29.64,29.49,13,5,13,0.00
2013-3-24,54.1,35.4,24.3,36.5,22.8,15.7,79,60,56,29.79,29.64,5,5,5,0.00
2013-3-25,35.8,26.3,21.4,26.4,20.1,15.7,100,78,59,29.76,29.61,5,5,5,0.00
2013-3-26,61.5,38.1,27.7,41.7,25.0,16.0,61,59,54,29.73,29.58,0,0,0,0.00
2013-3-27,50.0,35.8,23.2,34.8,25.3,12.8,100,67,56,29.88,29.70,0,0,0,0.04
2013-3-28,65.3,40.6,32.2,44.6,32.3,22.7,100,75,54,29.96,29.85,0,0,0,0.12
2013-3-29,61.7,41.6,30.9,43.7,28.0,18.7,62,58,54,29.99,29.93,0,0,0,0.00
2013-3-30,68.2,40.2,26.2,48.9,27.8,13.9,90,62,52,30.08,29.96,0,0,0,0.00
2013-3-31,66.2,40.8,21.9,48.4,26.9,10.2,62,57,52,30.08,29.82,0,0,0,0.00
2013-4-1,66.7,39.3,27.9,48.4,31.7,14.7,100,76,53,29.82,28.73,0,0,0,0.39
2013-4-2,50.2,29.2,20.3,35.1,16.6,8.6,61,59,56,29.78,29.67,0,0,0,0.39
2013-4-3,46.0,31.5,24.1,31.7,18.8,11.7,62,59,57,30.02,29.75,0,0,0,0.39
2013-4-4,62.6,42.6,25.2,45.2,28.4,12.9,60,57,53,30.54,30.02,0,0,0,0.00
2013-4-5,34.9,32.8,30.7,22.4,20.4,18.5,60,60,60,30.33,30.24,0,0,0,0.00
2013-4-7,42.4,40.1,38.7,28.5,26.6,25.6,59,58,58,30.33,30.30,0,0,0,0.00
2013-4-8,66.6,44.3,33.6,47.6,31.2,22.7,86,60,53,30.51,30.27,0,0,0,0.00
2013-4-9,54.1,40.6,36.5,38.5,32.4,25.1,97,73,55,30.51,30.30,0,0,0,0.20
2013-4-10,63.1,46.7,36.7,45.8,37.0,29.6,100,71,53,30.36,30.27,0,0,0,0.20
2013-4-11,54.5,41.7,32.9,40.3,31.6,21.1,100,69,55,30.57,30.27,0,0,0,0.04
2013-4-12,36.1,31.9,29.5,31.8,21.4,17.1,100,66,59,30.63,30.30,0,0,0,0.12
2013-4-13,56.5,39.4,30.2,40.5,30.8,26.2,100,73,55,30.30,30.19,0,0,0,0.31
2013-4-14,67.6,41.4,30.0,49.4,33.1,18.7,100,75,52,30.57,30.27,0,0,0,0.12
2013-4-15,80.1,45.6,26.1,59.6,34.3,19.1,100,67,50,30.78,30.57,0,0,0,0.12
2013-4-16,72.1,47.9,33.6,53.0,38.7,29.9,100,72,51,30.78,30.33,0,0,0,0.12
2013-4-17,65.5,49.2,33.4,50.6,35.0,21.1,92,58,53,30.75,30.33,0,0,0,0.12
2013-4-18,63.0,43.2,28.0,45.6,29.2,16.3,61,58,53,30.86,30.51,0,0,0,0.12
2013-4-19,80.1,56.6,45.1,60.5,41.9,31.2,77,58,52,30.51,30.01,0,0,0,0.00
2013-4-20,63.3,51.2,35.8,59.7,41.2,22.9,100,70,53,30.54,29.98,0,0,0,0.47
2013-4-21,56.3,38.5,27.0,39.8,25.2,14.2,61,59,55,31.07,30.54,0,0,0,0.00
2013-4-22,75.7,43.4,25.9,55.8,30.0,13.5,100,60,50,31.16,31.01,0,0,0,0.00
2013-4-23,57.4,37.9,23.9,40.9,30.2,20.3,100,76,54,31.04,30.63,0,0,0,0.00
2013-4-24,46.4,41.6,39.9,40.6,39.8,36.7,100,94,71,30.63,30.19,0,0,0,0.00
2013-4-25,67.6,50.6,35.1,48.9,38.5,22.6,96,64,52,30.69,30.16,0,0,0,0.00
2013-4-26,79.3,48.4,29.8,60.1,33.7,17.7,70,57,50,30.84,30.69,0,0,0,0.00
2013-4-27,79.9,51.1,33.1,60.7,37.4,24.5,76,60,50,30.81,30.69,0,0,0,0.00
2013-4-28,88.3,64.0,38.8,67.3,47.1,25.7,59,54,50,30.72,30.19,0,0,0,0.00
2013-4-29,90.1,55.8,35.8,68.8,40.1,22.9,62,56,50,30.22,30.13,0,0,0,0.00
2013-4-30,89.2,56.8,33.6,68.2,42.5,25.1,96,60,50,30.34,30.19,0,0,0,0.00
2013-5-1,93.6,51.7,35.1,70.2,36.5,22.6,60,56,49,30.40,30.34,0,0,0,0.00
2013-5-2,85.6,54.2,35.2,64.8,38.6,22.4,60,56,51,30.49,30.37,0,0,0,0.00
2013-5-3,83.8,53.4,31.5,62.6,40.1,22.2,98,62,50,30.52,30.34,0,0,0,0.00
2013-5-4,89.2,54.5,33.6,68.2,42.4,24.7,100,66,50,30.34,30.22,0,0,0,0.00
2013-5-5,88.7,49.1,30.2,67.4,39.4,27.1,100,73,50,30.28,30.16,0,0,0,0.00
2013-5-6,89.1,55.3,32.2,68.0,43.5,26.3,100,67,50,30.22,30.10,0,0,0,0.00
2013-5-7,97.7,60.9,36.0,73.0,49.2,32.9,100,69,49,30.13,30.04,0,0,0,0.00
2013-5-8,95.2,65.3,48.0,73.0,54.2,46.0,100,71,49,30.19,30.10,0,0,0,0.00
2013-5-9,73.9,61.0,55.0,56.3,52.5,47.9,100,75,53,30.10,29.87,0,0,0,0.39
2013-5-10,72.1,62.1,55.6,54.6,50.1,47.4,82,66,54,29.93,29.90,0,0,0,0.04
2013-5-11,68.7,58.1,52.7,62.2,53.9,47.4,100,86,63,29.90,29.66,0,0,0,0.39
2013-5-12,59.4,57.6,54.5,59.4,57.6,54.5,100,100,100,29.66,29.60,0,0,0,0.08
2013-5-14,43.0,41.2,37.9,29.2,27.7,25.7,66,58,58,29.98,29.96,0,0,0,0.00
2013-5-15,37.6,37.6,37.6,27.3,27.3,27.3,66,66,66,29.98,29.96,0,0,0,0.00
2013-5-17,46.4,43.0,40.5,32.4,31.6,29.9,71,64,57,30.16,30.16,0,0,0,0.00
2013-5-18,94.3,51.6,35.4,71.7,40.0,30.9,100,67,49,30.28,30.16,0,0,0,0.00
2013-5-19,83.5,54.3,37.0,63.1,44.9,35.3,100,74,50,30.34,30.19,0,0,0,0.04
2013-5-20,78.4,56.0,48.4,59.2,51.3,45.9,100,87,53,30.19,29.93,0,0,0,0.51
2013-5-21,57.9,53.2,49.1,57.9,51.5,46.5,100,94,81,30.10,29.93,0,0,0,0.71
2013-5-22,60.6,51.1,48.4,50.7,48.3,45.2,100,91,62,29.99,29.90,0,0,0,0.28
2013-5-23,76.1,58.5,49.3,65.7,53.5,47.6,100,86,56,29.93,29.78,0,0,0,0.28
2013-5-24,81.7,60.0,47.1,68.7,57.3,43.6,100,92,55,29.84,29.63,0,0,0,1.02
2013-5-25,50.4,46.8,43.7,47.3,44.8,40.6,100,93,78,29.84,29.66,0,0,0,1.34
2013-5-26,57.9,47.9,40.1,43.7,38.9,30.2,100,73,54,29.96,29.63,0,0,0,1.02
2013-5-27,76.5,53.2,33.3,55.8,40.7,29.6,99,64,50,30.13,29.93,0,0,0,1.02
2013-5-28,91.4,58.9,36.5,70.0,46.4,31.3,97,66,50,30.19,30.13,0,0,0,0.00
2013-5-29,55.4,55.4,55.4,55.4,54.7,54.0,100,98,95,29.98,29.98,0,0,0,0.00
2013-5-30,94.5,70.7,55.2,71.2,59.2,52.2,100,70,49,30.01,29.96,0,0,0,0.00
2013-5-31,101.8,77.3,58.5,77.7,64.2,55.5,100,68,47,30.04,29.90,0,0,0,0.00
2013-6-1,106.5,79.0,61.9,81.3,63.8,55.6,86,62,46,29.93,29.81,0,0,0,0.00
2013-6-2,104.0,75.3,62.8,79.8,63.7,54.4,100,70,47,29.81,29.63,0,0,0,0.16
2013-6-3,83.5,68.4,54.0,67.6,58.2,39.5,100,73,51,29.78,29.66,0,0,0,0.00
2013-6-4,72.1,56.3,47.8,52.6,41.5,34.1,77,58,52,30.01,29.78,0,0,0,0.00
2013-6-5,54.5,47.2,43.3,40.0,36.6,32.8,78,67,58,30.13,30.01,0,0,0,0.00
2013-6-6,74.8,63.0,54.1,56.4,46.8,40.6,66,56,52,30.16,30.10,0,0,0,0.00
2013-6-7,66.4,54.9,49.5,50.5,46.8,40.8,100,76,52,30.13,29.93,0,0,0,0.59
2013-6-8,72.0,59.3,50.0,54.7,51.4,48.2,100,78,54,29.98,29.69,0,0,0,0.55
2013-6-9,84.0,65.6,54.7,63.5,52.0,45.9,84,63,51,30.16,29.96,0,0,0,0.00
2013-6-10,87.8,64.7,48.0,67.3,52.4,44.4,97,66,51,30.19,30.01,0,0,0,0.00
2013-6-11,57.4,55.4,53.2,53.8,50.6,48.6,98,84,75,30.01,29.72,0,0,0,0.63
2013-6-12,58.6,57.0,55.4,56.3,51.4,47.0,95,82,69,29.78,29.57,0,0,0,0.63
2013-6-13,55.9,53.4,48.7,49.0,48.1,46.7,97,83,76,29.78,29.75,0,0,0,0.00
2013-6-14,79.0,68.5,51.6,60.1,53.9,44.6,89,61,52,29.75,29.66,0,0,0,0.00
2013-6-15,58.1,52.2,46.9,47.2,43.7,38.0,88,74,54,29.90,29.75,0,0,0,0.00
2013-6-16,88.5,64.8,46.2,67.3,51.9,37.1,80,64,50,29.90,29.72,0,0,0,0.00
2013-6-17,91.9,66.3,54.9,70.1,56.7,49.7,100,74,49,29.87,29.72,0,0,0,0.24
2013-6-18,72.1,60.8,49.8,56.8,50.2,44.5,100,71,52,29.99,29.84,0,0,0,0.00
2013-6-19,84.6,66.7,47.5,64.1,50.5,35.9,100,57,51,30.13,29.96,0,0,0,0.00
2013-6-20,91.0,64.7,42.4,69.3,49.7,35.1,95,59,50,30.22,30.10,0,0,0,0.00
2013-6-21,84.9,64.9,49.5,64.6,51.1,41.2,82,62,51,30.22,30.16,0,0,0,0.00
2013-6-22,89.6,69.0,54.5,68.5,55.9,43.0,100,65,50,30.19,28.38,0,0,0,0.04
2013-6-23,84.0,70.2,63.7,69.9,64.9,60.7,100,86,54,30.13,29.96,0,0,0,0.51
2013-6-24,93.7,75.8,61.9,71.7,64.2,55.7,100,71,49,29.98,29.84,0,0,0,0.00
2013-6-25,100.0,77.6,66.4,76.3,63.5,51.2,100,65,48,29.87,29.72,0,0,0,1.10
2013-6-26,84.4,69.4,60.4,72.7,64.9,60.3,100,87,53,29.87,29.72,0,0,0,1.34
2013-6-27,76.5,63.6,57.9,61.9,59.5,57.0,100,88,58,29.87,29.81,0,0,0,0.08
2013-6-28,64.0,59.9,57.0,62.4,59.3,56.5,100,98,81,29.84,29.54,0,0,0,0.87
2013-6-29,83.1,69.4,62.1,71.4,64.4,61.0,100,86,59,29.69,29.54,0,0,0,0.55
2013-6-30,99.0,74.5,62.1,74.7,65.9,62.1,100,79,48,29.93,29.66,0,0,0,0.55
2013-7-1,88.5,73.0,64.8,72.0,66.0,62.0,100,81,56,30.10,29.93,0,0,0,0.12
2013-7-2,67.3,60.4,56.1,67.3,58.4,54.0,100,93,76,30.22,30.07,0,0,0,0.24
2013-7-3,94.3,70.5,58.8,73.6,64.5,57.9,100,84,49,30.19,30.07,0,0,0,0.79
2013-7-4,98.6,78.8,67.1,77.2,70.7,61.9,100,80,49,30.16,30.04,0,0,0,0.04
2013-7-5,93.4,77.4,67.5,71.2,68.6,66.4,100,77,49,30.13,30.01,0,0,0,0.00
2013-7-6,88.9,74.3,67.3,70.5,64.7,56.5,100,75,50,30.04,29.95,5,0,6,0.00
2013-7-7,88.5,77.1,64.6,68.4,63.2,56.0,86,63,50,29.98,29.92,5,0,5,0.00
2013-7-8,74.8,67.7,64.8,70.5,65.0,59.2,100,92,63,30.07,29.92,8,0,8,0.51
2013-7-9,82.2,69.2,65.1,67.6,65.1,61.9,100,88,59,30.13,30.07,4,0,4,0.04
2013-7-10,72.5,66.0,63.1,66.2,64.2,60.9,100,94,72,30.07,29.77,5,0,5,0.91
2013-7-11,84.9,71.4,63.1,70.0,65.9,57.2,100,84,59,29.98,29.74,6,0,6,0.55
2013-7-12,86.7,69.8,57.6,66.4,57.8,52.5,100,68,51,30.22,29.98,8,1,8,0.04
2013-7-13,99.9,75.1,57.9,76.2,62.5,57.9,100,68,48,30.30,30.22,6,0,6,0.00
2013-7-14,92.7,71.5,62.1,72.3,64.8,62.1,100,83,49,30.27,30.19,5,0,5,0.00
2013-7-15,101.7,79.3,63.5,77.5,66.8,61.5,100,69,47,30.19,30.07,8,0,8,0.00
2013-7-16,101.8,79.3,65.1,77.3,67.1,61.2,100,69,47,30.16,30.10,8,0,8,0.00
2013-7-17,100.2,80.6,63.3,76.8,65.9,59.0,92,63,48,30.16,29.95,13,0,13,0.00
2013-7-18,97.7,78.9,67.1,74.5,68.5,65.0,100,74,48,30.01,29.95,6,1,6,0.12
2013-7-19,99.9,79.5,68.0,77.9,69.7,61.2,100,75,50,29.95,29.62,11,2,11,0.12
2013-7-20,97.2,76.0,64.8,74.2,65.6,51.4,100,73,48,29.80,29.59,10,0,10,0.12
2013-7-21,90.0,70.1,59.2,68.8,57.9,51.0,100,67,50,30.01,29.80,6,0,6,0.16
2013-7-22,83.8,67.3,57.0,63.6,58.0,50.0,100,74,51,30.04,29.92,6,0,6,0.00
2013-7-23,68.5,62.3,58.5,67.5,61.7,56.6,100,98,86,29.92,29.57,8,0,8,2.32
2013-7-24,97.3,69.4,53.8,74.3,59.3,42.5,100,73,48,29.98,29.57,10,1,232,2.24
2013-7-25,88.7,64.4,46.9,67.7,51.9,42.1,100,65,50,30.10,29.98,8,1,8,2.24
2013-7-26,75.2,64.9,59.7,59.9,56.7,54.3,93,75,58,30.10,29.92,12,2,12,2.24
2013-7-27,99.3,72.8,58.3,76.2,61.3,56.5,100,70,48,30.01,29.92,6,0,6,0.00
2013-7-28,97.5,70.4,58.3,74.2,61.2,57.9,100,75,48,30.04,30.01,8,0,8,0.00
2013-7-29,84.6,68.9,62.1,67.6,63.9,61.8,100,86,53,30.04,29.98,8,0,8,0.16
2013-7-30,90.1,70.4,56.1,67.8,58.4,50.5,100,68,50,30.07,30.01,9,1,9,0.04
2013-7-31,96.6,69.5,53.4,74.2,58.6,51.4,100,72,49,30.10,30.01,8,0,8,0.04
2013-8-1,95.0,70.0,55.9,72.0,61.1,55.2,100,78,49,30.04,29.89,8,0,10,0.04
2013-8-2,79.2,66.2,60.8,64.4,61.8,54.6,100,87,52,29.86,29.74,8,0,8,1.14
2013-8-3,90.7,64.9,54.7,69.3,57.2,49.8,100,79,50,29.83,29.71,8,0,8,0.04
2013-8-4,88.0,64.0,53.2,67.3,53.8,49.5,93,71,51,29.83,29.74,10,0,10,0.04
2013-8-5,77.7,60.4,47.3,58.9,49.2,39.5,100,69,53,30.01,29.83,12,1,12,0.00
2013-8-6,85.5,59.2,45.3,65.0,50.5,42.8,100,76,51,30.13,30.01,6,0,6,0.00
2013-8-7,88.5,65.3,49.3,67.2,54.6,49.3,100,71,50,30.16,30.10,9,0,9,0.00
2013-8-8,79.3,65.9,58.5,67.5,60.4,52.5,100,83,61,30.10,30.01,5,0,5,0.04
2013-8-9,73.6,68.3,64.2,73.2,68.1,64.2,100,99,89,30.01,29.74,8,0,8,2.87
2013-8-10,82.2,67.2,52.5,68.7,57.4,46.3,100,74,52,29.98,29.74,13,1,13,0.04
2013-8-11,81.3,63.4,48.2,62.0,53.2,47.1,100,72,52,30.04,29.95,8,0,8,0.04
2013-8-12,86.2,67.2,52.9,65.9,56.4,50.5,100,71,51,29.98,29.89,7,0,7,0.04
2013-8-13,79.0,64.1,54.5,67.5,60.4,53.3,100,89,55,29.92,29.68,5,0,5,0.91
2013-8-14,77.0,65.4,51.6,66.9,56.6,44.5,100,76,53,29.86,29.62,8,1,10,0.04
2013-8-15,54.1,51.2,48.0,53.1,48.8,46.3,100,92,83,30.07,29.86,0,0,0,0.00
2013-8-16,89.4,64.9,48.9,67.7,55.0,48.8,100,74,50,30.16,30.04,6,0,6,0.00
2013-8-17,84.7,65.6,52.2,64.0,55.0,49.6,100,71,51,30.24,30.16,8,0,8,0.00
2013-8-18,81.1,65.1,50.2,62.6,55.9,47.6,100,76,52,30.24,30.04,6,0,6,0.00
2013-8-19,90.9,68.0,53.4,69.2,57.7,51.9,100,73,50,30.04,29.89,8,0,8,0.00
2013-8-20,90.3,71.2,58.5,69.2,60.2,56.2,100,71,50,30.07,29.95,7,0,7,0.00
2013-8-21,91.2,72.6,58.8,70.0,62.5,58.3,100,74,50,30.13,29.98,9,0,9,0.00
2013-8-22,91.2,72.9,58.8,70.3,62.9,58.8,100,74,50,29.98,29.77,9,1,9,0.00
2013-8-23,83.1,66.6,50.4,62.5,53.2,42.8,87,63,52,30.16,29.77,10,2,10,0.00
2013-8-24,81.9,60.6,44.8,62.2,50.8,44.8,100,73,52,30.30,30.16,6,0,6,0.00
2013-8-25,83.3,62.9,45.7,63.1,52.9,45.3,100,73,51,30.33,30.13,8,0,8,0.00
2013-8-26,76.8,65.6,56.8,64.9,60.3,55.1,100,85,61,30.13,29.86,8,0,8,0.12
2013-8-27,94.8,72.0,58.6,71.7,63.4,58.6,100,78,49,29.89,29.83,5,0,5,0.00
2013-8-28,91.6,71.3,60.4,71.5,65.0,60.4,100,84,51,30.01,29.86,9,0,10,0.35
2013-8-29,68.7,63.1,58.8,63.9,60.3,56.5,100,91,68,30.10,29.98,9,1,9,0.00
2013-8-30,83.3,69.1,59.0,69.3,62.6,58.1,100,82,54,30.01,29.77,6,0,6,0.00
2013-8-31,88.7,72.5,64.2,72.7,67.3,64.0,100,86,53,32.31,29.77,11,0,11,0.31
2013-9-1,90.1,74.2,67.1,73.2,67.0,62.4,100,80,51,29.92,29.74,7,0,7,0.24
2013-9-2,69.1,66.5,63.0,69.1,66.1,62.8,100,99,84,29.92,29.74,15,1,15,2.09
2013-9-3,82.4,69.7,59.2,71.8,65.1,59.2,100,87,54,29.77,29.68,7,0,7,0.00
2013-9-4,79.9,66.0,55.4,65.7,56.8,52.8,100,75,52,29.89,29.74,10,1,10,0.00
2013-9-5,68.7,57.4,42.3,59.8,49.8,40.0,100,78,52,30.13,29.86,10,1,10,0.16
2013-9-6,73.8,52.7,37.0,54.5,44.8,37.0,100,78,51,30.19,30.01,8,0,8,0.00
2013-9-7,81.5,59.8,45.9,61.7,52.2,44.3,100,79,52,30.01,29.77,8,0,8,0.00
2013-9-8,66.2,57.2,41.7,57.9,49.1,35.8,100,76,54,30.04,29.71,16,2,16,0.08
2013-9-9,74.8,52.6,36.1,53.7,43.7,36.1,100,75,51,30.16,30.04,8,1,8,0.08
2013-9-10,67.8,58.0,46.0,63.0,54.6,46.0,100,89,73,30.07,30.01,3,0,3,0.08
2013-9-11,92.7,73.4,62.6,75.2,67.7,62.6,100,85,53,30.04,29.89,10,1,10,0.51
2013-9-12,68.5,66.6,64.9,68.5,66.6,64.9,100,100,100,29.98,29.65,6,1,6,0.51
2013-9-13,73.6,63.5,54.7,66.6,62.0,54.7,100,95,66,29.71,29.59,9,1,9,0.39
2013-9-14,73.8,58.2,50.0,57.1,51.5,45.0,100,80,54,30.01,29.71,9,1,9,0.04
2013-9-15,81.3,56.3,41.0,60.4,48.9,41.0,100,79,52,30.10,29.98,8,1,8,0.04
2013-9-16,69.6,53.6,39.6,58.1,46.5,29.9,100,79,55,30.22,29.95,12,1,12,0.12
2013-9-17,76.6,49.5,34.3,58.2,40.2,29.9,100,73,50,30.36,30.22,8,0,8,0.04
2013-9-18,88.5,55.0,39.4,67.3,46.8,38.4,100,77,50,30.27,30.10,9,0,9,0.00
2013-9-19,92.8,59.1,43.3,69.6,51.1,43.0,100,79,49,30.10,30.01,8,0,8,0.00
2013-9-20,91.8,60.7,46.0,69.8,51.7,44.3,100,75,49,30.10,30.01,8,0,8,0.00
2013-9-21,74.7,59.5,47.3,63.3,54.5,47.1,100,85,56,30.01,29.71,14,2,232,0.00
2013-9-22,80.2,62.3,47.5,66.3,56.0,40.0,100,81,55,29.74,29.57,14,3,14,0.71
2013-9-23,59.5,48.7,41.0,43.6,37.4,34.1,86,65,55,29.92,29.74,19,4,22,0.00
2013-9-24,57.6,49.1,41.7,41.1,37.9,34.6,81,66,54,29.92,29.80,16,4,16,0.00
2013-9-25,63.0,52.6,43.9,46.9,42.5,37.5,91,69,56,29.98,29.86,12,2,12,0.00
2013-9-26,70.0,54.3,40.1,52.6,45.5,40.1,100,74,54,30.13,29.98,9,2,9,0.00
2013-9-27,75.2,58.4,48.7,56.6,49.2,45.3,100,74,53,30.24,30.13,8,1,8,0.00
2013-9-28,77.4,56.5,43.7,57.8,49.2,43.7,100,80,53,30.33,30.24,8,0,8,0.00
2013-9-29,81.9,55.2,42.1,61.9,48.6,40.8,100,82,52,30.24,30.10,8,1,8,0.00
2013-9-30,84.9,53.1,38.3,64.3,47.5,38.1,100,85,51,30.10,29.95,7,0,7,0.00
2013-10-1,81.7,57.6,43.3,61.2,50.6,43.3,100,81,52,29.95,29.83,9,2,9,0.00
2013-10-2,81.7,61.8,49.8,67.5,53.4,44.3,100,77,52,29.89,29.77,14,1,14,0.00
2013-10-3,77.4,59.6,44.8,58.4,47.9,40.4,90,67,53,30.04,29.86,13,2,13,0.00
2013-10-5,47.3,46.2,45.1,47.1,45.4,42.4,100,97,90,30.13,30.10,0,0,0,0.00
2013-10-6,60.3,50.1,44.4,48.0,39.5,32.1,100,68,54,30.24,30.13,10,1,10,0.08
2013-10-7,66.0,56.5,48.0,66.0,56.4,48.0,100,100,86,30.19,29.71,22,2,22,0.28
2013-10-8,70.3,50.9,38.8,56.3,41.0,31.6,100,70,52,30.36,29.80,17,3,17,0.00
2013-10-9,85.5,48.0,33.8,62.4,40.1,32.2,100,77,48,30.45,30.33,9,0,9,0.00
2013-10-10,89.1,51.4,35.1,67.8,44.7,35.1,100,81,50,30.33,30.16,6,0,6,0.00
2013-10-11,48.2,46.4,43.2,46.6,44.4,42.7,100,93,87,30.16,30.13,0,0,0,0.00
2013-10-12,58.8,53.8,49.5,50.2,48.2,46.8,92,82,71,30.39,30.33,6,0,6,0.00
2013-10-13,56.7,51.7,49.3,49.4,47.2,44.6,97,85,74,30.42,30.36,6,0,6,0.00
2013-10-14,85.6,56.6,48.9,64.6,47.0,43.9,85,72,51,30.36,30.19,9,1,9,0.00
2013-10-15,77.4,57.5,47.1,58.1,49.4,45.3,100,77,53,30.27,30.16,8,1,8,0.00
2013-10-16,79.0,55.1,46.4,58.7,47.7,40.8,95,77,53,30.19,29.86,9,1,9,0.00
2013-10-17,91.4,57.5,47.1,68.5,50.0,41.7,100,79,50,29.86,29.71,10,1,10,0.00
2013-10-18,77.5,55.0,46.2,59.1,46.8,34.9,100,76,53,29.80,29.59,15,2,15,0.31
2013-10-19,85.8,54.0,40.8,64.5,40.6,31.6,78,61,49,29.89,29.71,10,2,10,0.00
2013-10-20,73.9,54.0,43.9,52.9,43.5,32.8,100,70,51,29.83,29.62,16,3,16,0.00
2013-10-21,79.2,56.4,45.9,56.5,42.6,35.4,77,61,50,30.04,29.92,8,1,8,0.00
2013-10-22,58.6,48.3,36.7,49.6,42.0,32.0,100,79,65,29.92,29.68,11,2,11,0.00
2013-10-23,70.7,43.3,30.2,51.1,32.7,25.4,97,67,52,29.74,29.57,9,1,9,0.00
2013-10-24,59.2,40.3,29.7,42.6,28.0,23.0,82,62,54,29.77,29.57,16,2,17,0.00
2013-10-25,54.7,39.1,29.5,38.8,27.0,19.1,81,62,55,30.04,29.77,15,3,15,0.00
2013-10-26,49.3,40.0,27.7,34.1,27.8,19.2,81,62,56,30.07,29.80,13,2,13,0.00
2013-10-27,59.7,43.6,30.9,42.6,30.4,20.9,80,60,54,29.95,29.74,15,2,15,0.00
2013-10-28,55.4,36.6,26.2,38.8,26.4,15.3,91,67,55,30.30,29.95,18,2,18,0.00
2013-10-29,66.0,32.7,18.5,47.9,22.2,12.8,94,66,53,30.39,30.27,8,1,8,0.00
2013-10-30,54.7,34.2,22.8,38.8,22.3,11.8,82,62,55,30.30,30.13,11,1,11,0.00
2013-10-31,46.4,36.7,25.2,46.4,33.6,21.3,100,89,65,30.19,29.74,4,0,4,0.31
2013-11-1,75.6,58.3,46.4,62.2,53.4,38.7,100,85,56,29.74,29.30,17,5,17,0.35
2013-11-2,80.4,51.4,38.1,60.7,40.9,34.0,100,69,50,29.74,29.54,12,1,12,0.00
2013-11-3,52.0,35.1,26.2,34.9,24.6,13.9,88,66,56,30.36,29.74,14,5,17,0.04
2013-11-4,60.8,29.6,19.4,43.1,17.8,10.2,79,61,54,30.63,30.36,11,2,11,0.00
2013-11-5,66.2,33.1,19.4,48.1,23.4,10.4,89,68,52,30.63,30.42,9,1,10,0.00
2013-11-6,75.0,43.3,27.1,55.7,36.1,24.8,100,78,51,30.42,29.92,11,2,11,0.00
2013-11-7,54.9,47.0,36.1,54.5,40.1,23.2,100,77,59,29.92,29.62,18,4,18,0.08
2013-11-8,55.4,36.4,26.2,38.3,23.8,16.4,74,60,55,29.92,29.74,17,4,17,0.00
2013-11-9,51.1,35.3,31.1,36.0,22.9,18.9,76,60,56,30.07,29.92,15,4,15,0.00
2013-11-10,39.7,33.7,30.2,35.2,31.2,24.1,100,90,75,30.01,29.65,6,0,6,0.04
2013-11-11,61.5,38.6,32.7,44.6,28.0,21.7,100,66,54,29.95,29.68,15,2,15,0.00
2013-11-12,45.1,29.5,23.4,30.5,17.6,11.2,80,61,57,30.04,29.77,18,4,18,0.00
2013-11-13,46.2,24.8,16.2,31.0,12.8,5.1,61,60,57,30.16,29.98,13,3,13,0.00
2013-11-14,24.3,23.2,21.9,13.1,11.9,10.2,62,61,60,29.98,29.95,0,0,0,0.00
2013-11-15,67.6,42.4,29.7,48.2,28.6,17.5,63,58,53,30.13,30.04,7,0,7,0.00
2013-11-16,78.3,42.7,30.0,58.4,29.5,18.0,100,60,50,30.27,30.13,5,0,5,0.00
2013-11-17,46.9,37.4,27.0,46.9,37.0,27.0,100,99,83,30.30,29.89,8,0,8,0.16
2013-11-18,73.4,52.0,37.0,57.2,44.0,24.1,100,77,51,29.89,29.42,25,3,25,0.39
2013-11-19,41.5,32.6,26.8,27.5,20.1,14.0,61,60,58,30.19,29.54,21,6,21,0.35
2013-11-20,49.1,28.2,18.5,32.5,15.8,6.9,62,59,57,30.54,30.19,15,4,15,0.35
2013-11-21,64.9,30.6,16.3,45.9,18.2,6.1,68,60,53,30.54,30.27,9,1,9,0.35
2013-11-22,39.7,31.8,24.3,33.8,24.0,12.0,100,74,58,30.27,29.71,0,0,0,0.04
2013-11-23,48.0,30.8,19.4,35.8,21.6,9.4,100,69,57,29.77,29.62,18,3,18,0.00
2013-11-24,24.6,18.6,14.7,12.4,7.3,3.7,63,61,59,29.74,29.62,26,7,26,0.00
2013-11-27,54.7,46.4,33.3,54.7,45.4,25.8,100,97,72,29.54,29.15,17,4,17,1.65
2013-11-28,37.4,24.1,13.6,26.2,13.1,3.0,74,62,57,30.27,29.24,15,4,15,0.00
2013-11-29,34.5,16.2,6.4,20.9,5.0,-3.8,62,61,57,30.63,30.27,13,3,13,0.00
2013-11-30,44.4,18.9,3.7,28.0,8.0,-6.4,72,62,56,30.69,30.33,10,2,10,0.00
2013-12-1,39.7,31.1,25.5,32.2,22.6,14.0,100,71,58,30.33,30.01,10,1,10,0.00
2013-12-2,35.1,33.2,30.2,34.9,32.7,28.1,100,98,90,30.04,29.86,11,2,11,0.04
2013-12-3,50.2,36.9,31.6,39.3,29.5,21.7,100,75,57,29.86,29.80,11,3,11,0.16
2013-12-4,50.0,32.3,23.9,33.5,21.2,16.5,89,64,57,30.13,29.80,15,3,15,0.00
2013-12-5,39.2,31.2,22.8,39.0,28.8,19.6,100,91,73,30.19,29.83,0,0,0,0.08
2013-12-6,46.6,38.4,33.8,41.9,31.8,21.2,100,79,59,30.04,29.80,13,2,13,0.31
2013-12-7,43.3,29.5,16.3,29.1,17.3,5.1,61,60,58,30.30,30.01,15,4,15,0.00
2013-12-8,34.7,22.2,16.7,20.4,10.4,5.6,63,60,58,30.48,30.42,16,2,16,0.00
2013-12-9,26.2,21.0,18.9,19.2,12.4,7.3,92,70,60,30.45,29.77,10,2,10,0.00
2013-12-10,34.9,24.0,16.0,30.4,17.5,5.8,100,77,60,29.80,29.65,10,1,10,0.00
2013-12-11,33.3,18.8,6.4,20.5,8.3,-4.1,74,63,58,30.04,29.80,13,2,13,0.00
2013-12-12,29.8,10.9,3.4,14.9,1.3,-6.7,72,65,58,30.13,29.89,14,2,14,0.00
2013-12-13,27.3,7.8,-1.3,14.5,-2.8,-12.0,64,61,58,30.27,29.77,13,3,13,0.00
2013-12-14,32.9,5.4,-7.1,19.6,-5.1,-17.0,61,61,58,30.48,30.24,12,2,12,0.00
2013-12-15,19.8,10.7,5.0,13.4,2.8,-5.5,82,70,61,30.27,29.39,20,5,20,0.00
2013-12-16,33.8,9.7,-5.1,19.6,1.3,-14.8,80,69,58,30.10,29.57,20,3,20,0.00
2013-12-17,19.4,1.4,-14.4,7.8,-8.6,-23.7,62,62,60,30.19,29.95,9,1,9,0.00
2013-12-18,41.7,21.4,10.0,28.0,11.3,-0.4,75,65,58,29.95,29.77,12,4,12,0.00
2013-12-19,34.9,24.7,12.6,27.9,15.6,8.1,93,69,60,30.01,29.83,8,0,8,0.00
2013-12-20,40.6,31.8,26.2,31.8,23.7,15.7,100,72,58,30.04,29.83,0,0,0,0.00
2013-12-21,40.5,34.6,30.6,34.9,29.0,26.3,100,80,63,29.89,29.77,8,0,8,0.08
2013-12-22,34.3,27.8,23.9,34.3,25.8,20.9,100,92,85,30.01,29.80,10,0,12,0.31
2013-12-23,33.4,29.8,24.4,33.4,28.4,22.9,100,95,83,30.04,29.92,0,0,0,0.04
2013-12-24,31.5,20.7,6.1,28.2,14.9,-0.4,100,78,60,30.10,29.98,0,0,0,0.04
2013-12-25,31.5,7.6,0.7,17.2,-1.0,-7.6,74,67,58,30.42,30.10,0,0,0,0.00
2013-12-26,21.7,14.7,7.0,16.2,7.1,-3.3,87,72,62,30.39,30.01,0,0,0,0.00
2013-12-27,43.0,20.3,9.5,31.3,14.4,4.9,100,79,58,30.10,30.04,0,0,0,0.00
2013-12-28,43.7,24.5,10.2,31.2,20.5,7.6,100,85,58,30.07,29.86,0,0,0,0.00
2013-12-29,36.9,29.4,21.0,36.9,28.8,17.8,100,98,87,29.95,29.51,0,0,0,0.00
2013-12-30,39.9,19.3,-0.9,30.6,13.1,-10.8,100,77,57,30.07,29.48,0,0,0,0.00
2013-12-31,18.0,1.7,-5.4,6.4,-8.5,-15.4,62,62,60,30.04,29.92,4,0,4,0.00
2014-1-1,27.9,7.2,-6.0,14.5,-3.3,-15.9,62,61,58,30.27,29.98,13,2,14,0.00
2014-1-2,4.5,-3.1,-8.3,-5.7,-12.9,-17.8,62,62,62,30.30,29.89,14,4,14,0.00